sensor_id;sensor_type;location;lat;lon;timestamp;P1;durP1;ratioP1;P2;durP2;ratioP2
69534;SDS011;56754;51.568;5.048;2023-03-14T00:03:37;6.13;;;0.90;;
69534;SDS011;56754;51.568;5.048;2023-03-14T00:06:03;5.63;;;0.80;;
69534;SDS011;56754;51.568;5.048;2023-03-14T00:08:29;6.13;;;1.20;;
69534;SDS011;56754;51.568;5.048;2023-03-14T00:10:55;6.50;;;1.00;;
69534;SDS011;56754;51.568;5.048;2023-03-14T00:13:20;7.17;;;1.00;;
69534;SDS011;56754;51.568;5.048;2023-03-14T00:15:46;5.30;;;1.03;;
69534;SDS011;56754;51.568;5.048;2023-03-14T00:18:11;4.23;;;0.60;;
69534;SDS011;56754;51.568;5.048;2023-03-14T00:20:36;7.47;;;0.80;;
69534;SDS011;56754;51.568;5.048;2023-03-14T00:23:02;4.67;;;1.10;;
69534;SDS011;56754;51.568;5.048;2023-03-14T00:25:27;5.57;;;0.77;;
69534;SDS011;56754;51.568;5.048;2023-03-14T00:27:52;6.33;;;0.70;;
69534;SDS011;56754;51.568;5.048;2023-03-14T00:30:18;7.53;;;0.80;;
69534;SDS011;56754;51.568;5.048;2023-03-14T00:32:43;8.43;;;1.23;;
69534;SDS011;56754;51.568;5.048;2023-03-14T00:35:09;8.77;;;0.90;;
69534;SDS011;56754;51.568;5.048;2023-03-14T00:37:34;5.13;;;0.87;;
69534;SDS011;56754;51.568;5.048;2023-03-14T00:39:59;5.33;;;1.00;;
69534;SDS011;56754;51.568;5.048;2023-03-14T00:42:25;7.47;;;1.07;;
69534;SDS011;56754;51.568;5.048;2023-03-14T00:44:50;5.68;;;0.57;;
69534;SDS011;56754;51.568;5.048;2023-03-14T00:47:15;6.80;;;0.83;;
69534;SDS011;56754;51.568;5.048;2023-03-14T00:49:41;8.37;;;0.97;;
69534;SDS011;56754;51.568;5.048;2023-03-14T00:52:06;6.30;;;0.80;;
69534;SDS011;56754;51.568;5.048;2023-03-14T00:54:31;4.53;;;0.73;;
69534;SDS011;56754;51.568;5.048;2023-03-14T00:56:57;6.35;;;0.88;;
69534;SDS011;56754;51.568;5.048;2023-03-14T00:59:22;5.47;;;0.50;;
69534;SDS011;56754;51.568;5.048;2023-03-14T01:01:47;6.07;;;0.80;;
69534;SDS011;56754;51.568;5.048;2023-03-14T01:04:13;6.43;;;0.90;;
69534;SDS011;56754;51.568;5.048;2023-03-14T01:06:38;6.10;;;0.73;;
69534;SDS011;56754;51.568;5.048;2023-03-14T01:09:04;6.07;;;0.80;;
69534;SDS011;56754;51.568;5.048;2023-03-14T01:11:31;6.63;;;0.63;;
69534;SDS011;56754;51.568;5.048;2023-03-14T01:13:57;4.80;;;0.90;;
69534;SDS011;56754;51.568;5.048;2023-03-14T01:16:24;4.90;;;0.90;;
69534;SDS011;56754;51.568;5.048;2023-03-14T01:18:51;5.95;;;0.80;;
69534;SDS011;56754;51.568;5.048;2023-03-14T01:21:18;6.22;;;1.10;;
69534;SDS011;56754;51.568;5.048;2023-03-14T01:23:48;5.50;;;0.80;;
69534;SDS011;56754;51.568;5.048;2023-03-14T01:26:16;5.03;;;1.00;;
69534;SDS011;56754;51.568;5.048;2023-03-14T01:28:42;5.47;;;0.70;;
69534;SDS011;56754;51.568;5.048;2023-03-14T01:31:09;5.90;;;0.73;;
69534;SDS011;56754;51.568;5.048;2023-03-14T01:33:35;7.32;;;0.70;;
69534;SDS011;56754;51.568;5.048;2023-03-14T01:36:01;4.95;;;0.50;;
69534;SDS011;56754;51.568;5.048;2023-03-14T01:38:28;3.83;;;0.63;;
69534;SDS011;56754;51.568;5.048;2023-03-14T01:40:54;6.32;;;0.90;;
69534;SDS011;56754;51.568;5.048;2023-03-14T01:43:20;5.60;;;0.57;;
69534;SDS011;56754;51.568;5.048;2023-03-14T01:48:23;6.35;;;0.60;;
69534;SDS011;56754;51.568;5.048;2023-03-14T01:50:50;4.93;;;0.98;;
69534;SDS011;56754;51.568;5.048;2023-03-14T01:53:16;5.40;;;0.90;;
69534;SDS011;56754;51.568;5.048;2023-03-14T01:55:42;5.22;;;0.70;;
69534;SDS011;56754;51.568;5.048;2023-03-14T01:58:07;5.63;;;0.63;;
69534;SDS011;56754;51.568;5.048;2023-03-14T02:00:33;3.88;;;0.60;;
69534;SDS011;56754;51.568;5.048;2023-03-14T02:03:00;6.23;;;0.70;;
69534;SDS011;56754;51.568;5.048;2023-03-14T02:05:31;6.57;;;0.82;;
69534;SDS011;56754;51.568;5.048;2023-03-14T02:08:00;5.10;;;0.70;;
69534;SDS011;56754;51.568;5.048;2023-03-14T02:10:28;6.17;;;0.90;;
69534;SDS011;56754;51.568;5.048;2023-03-14T02:12:57;6.53;;;1.08;;
69534;SDS011;56754;51.568;5.048;2023-03-14T02:15:26;5.35;;;0.63;;
69534;SDS011;56754;51.568;5.048;2023-03-14T02:17:51;5.30;;;0.73;;
69534;SDS011;56754;51.568;5.048;2023-03-14T02:22:51;4.70;;;0.63;;
69534;SDS011;56754;51.568;5.048;2023-03-14T02:28:24;4.38;;;0.80;;
69534;SDS011;56754;51.568;5.048;2023-03-14T02:30:49;6.97;;;1.00;;
69534;SDS011;56754;51.568;5.048;2023-03-14T02:33:16;8.23;;;0.80;;
69534;SDS011;56754;51.568;5.048;2023-03-14T02:36:02;5.88;;;0.80;;
69534;SDS011;56754;51.568;5.048;2023-03-14T02:38:55;5.55;;;0.70;;
69534;SDS011;56754;51.568;5.048;2023-03-14T02:41:20;5.72;;;0.80;;
69534;SDS011;56754;51.568;5.048;2023-03-14T02:43:45;6.83;;;0.90;;
69534;SDS011;56754;51.568;5.048;2023-03-14T02:46:12;5.87;;;0.87;;
69534;SDS011;56754;51.568;5.048;2023-03-14T02:48:40;4.20;;;0.70;;
69534;SDS011;56754;51.568;5.048;2023-03-14T02:51:42;8.23;;;1.00;;
69534;SDS011;56754;51.568;5.048;2023-03-14T02:54:08;6.07;;;0.70;;
69534;SDS011;56754;51.568;5.048;2023-03-14T02:56:33;5.63;;;0.80;;
69534;SDS011;56754;51.568;5.048;2023-03-14T02:58:59;4.20;;;0.80;;
69534;SDS011;56754;51.568;5.048;2023-03-14T03:01:27;8.90;;;0.70;;
69534;SDS011;56754;51.568;5.048;2023-03-14T03:03:53;7.93;;;1.03;;
69534;SDS011;56754;51.568;5.048;2023-03-14T03:06:18;6.17;;;0.90;;
69534;SDS011;56754;51.568;5.048;2023-03-14T03:08:43;5.03;;;1.10;;
69534;SDS011;56754;51.568;5.048;2023-03-14T03:11:09;4.17;;;0.73;;
69534;SDS011;56754;51.568;5.048;2023-03-14T03:13:34;6.80;;;1.00;;
69534;SDS011;56754;51.568;5.048;2023-03-14T03:15:59;5.20;;;0.88;;
69534;SDS011;56754;51.568;5.048;2023-03-14T03:18:25;8.37;;;0.80;;
69534;SDS011;56754;51.568;5.048;2023-03-14T03:20:50;6.60;;;0.90;;
69534;SDS011;56754;51.568;5.048;2023-03-14T03:23:15;7.40;;;0.70;;
69534;SDS011;56754;51.568;5.048;2023-03-14T03:25:41;5.50;;;0.60;;
69534;SDS011;56754;51.568;5.048;2023-03-14T03:28:06;5.85;;;0.57;;
69534;SDS011;56754;51.568;5.048;2023-03-14T03:30:32;5.93;;;0.63;;
69534;SDS011;56754;51.568;5.048;2023-03-14T03:33:04;5.60;;;0.70;;
69534;SDS011;56754;51.568;5.048;2023-03-14T03:35:30;6.53;;;0.80;;
69534;SDS011;56754;51.568;5.048;2023-03-14T03:37:55;5.25;;;0.70;;
69534;SDS011;56754;51.568;5.048;2023-03-14T03:40:21;4.10;;;0.70;;
69534;SDS011;56754;51.568;5.048;2023-03-14T03:42:46;4.30;;;0.53;;
69534;SDS011;56754;51.568;5.048;2023-03-14T03:45:12;6.75;;;0.80;;
69534;SDS011;56754;51.568;5.048;2023-03-14T03:47:38;5.33;;;0.80;;
69534;SDS011;56754;51.568;5.048;2023-03-14T03:50:03;4.47;;;0.70;;
69534;SDS011;56754;51.568;5.048;2023-03-14T03:52:29;5.00;;;0.80;;
69534;SDS011;56754;51.568;5.048;2023-03-14T03:54:54;7.07;;;0.73;;
69534;SDS011;56754;51.568;5.048;2023-03-14T03:57:20;4.07;;;0.50;;
69534;SDS011;56754;51.568;5.048;2023-03-14T03:59:45;3.67;;;0.50;;
69534;SDS011;56754;51.568;5.048;2023-03-14T04:02:10;3.80;;;0.50;;
69534;SDS011;56754;51.568;5.048;2023-03-14T04:04:35;4.20;;;0.50;;
69534;SDS011;56754;51.568;5.048;2023-03-14T04:07:01;5.00;;;0.70;;
69534;SDS011;56754;51.568;5.048;2023-03-14T04:09:26;3.73;;;0.60;;
69534;SDS011;56754;51.568;5.048;2023-03-14T04:11:51;5.37;;;0.60;;
69534;SDS011;56754;51.568;5.048;2023-03-14T04:14:17;5.67;;;0.73;;
69534;SDS011;56754;51.568;5.048;2023-03-14T04:16:42;5.83;;;0.70;;
69534;SDS011;56754;51.568;5.048;2023-03-14T04:19:07;5.17;;;0.70;;
69534;SDS011;56754;51.568;5.048;2023-03-14T04:21:33;5.00;;;0.70;;
69534;SDS011;56754;51.568;5.048;2023-03-14T04:23:58;6.35;;;0.85;;
69534;SDS011;56754;51.568;5.048;2023-03-14T04:26:23;5.13;;;0.70;;
69534;SDS011;56754;51.568;5.048;2023-03-14T04:28:48;4.90;;;0.50;;
69534;SDS011;56754;51.568;5.048;2023-03-14T04:31:15;4.20;;;0.67;;
69534;SDS011;56754;51.568;5.048;2023-03-14T04:33:42;4.35;;;0.60;;
69534;SDS011;56754;51.568;5.048;2023-03-14T04:36:08;3.93;;;1.10;;
69534;SDS011;56754;51.568;5.048;2023-03-14T04:38:34;3.47;;;0.60;;
69534;SDS011;56754;51.568;5.048;2023-03-14T04:40:59;3.83;;;0.60;;
69534;SDS011;56754;51.568;5.048;2023-03-14T04:43:25;5.03;;;0.65;;
69534;SDS011;56754;51.568;5.048;2023-03-14T04:45:50;7.30;;;0.90;;
69534;SDS011;56754;51.568;5.048;2023-03-14T04:48:16;4.45;;;0.60;;
69534;SDS011;56754;51.568;5.048;2023-03-14T04:50:41;6.60;;;0.60;;
69534;SDS011;56754;51.568;5.048;2023-03-14T04:53:07;4.33;;;0.50;;
69534;SDS011;56754;51.568;5.048;2023-03-14T04:55:32;3.57;;;0.63;;
69534;SDS011;56754;51.568;5.048;2023-03-14T04:57:58;6.13;;;0.70;;
69534;SDS011;56754;51.568;5.048;2023-03-14T05:00:25;6.20;;;0.50;;
69534;SDS011;56754;51.568;5.048;2023-03-14T05:02:50;5.07;;;0.60;;
69534;SDS011;56754;51.568;5.048;2023-03-14T05:05:16;4.97;;;0.85;;
69534;SDS011;56754;51.568;5.048;2023-03-14T05:07:41;5.13;;;0.60;;
69534;SDS011;56754;51.568;5.048;2023-03-14T05:10:07;4.33;;;0.70;;
69534;SDS011;56754;51.568;5.048;2023-03-14T05:12:33;3.97;;;0.70;;
69534;SDS011;56754;51.568;5.048;2023-03-14T05:14:58;4.90;;;0.80;;
69534;SDS011;56754;51.568;5.048;2023-03-14T05:17:23;4.20;;;0.65;;
69534;SDS011;56754;51.568;5.048;2023-03-14T05:19:48;7.03;;;1.00;;
69534;SDS011;56754;51.568;5.048;2023-03-14T05:22:14;5.50;;;0.77;;
69534;SDS011;56754;51.568;5.048;2023-03-14T05:24:39;5.20;;;1.00;;
69534;SDS011;56754;51.568;5.048;2023-03-14T05:27:04;4.17;;;0.90;;
69534;SDS011;56754;51.568;5.048;2023-03-14T05:29:30;5.87;;;0.87;;
69534;SDS011;56754;51.568;5.048;2023-03-14T05:31:55;4.50;;;1.10;;
69534;SDS011;56754;51.568;5.048;2023-03-14T05:34:20;5.27;;;1.00;;
69534;SDS011;56754;51.568;5.048;2023-03-14T05:36:46;4.07;;;1.20;;
69534;SDS011;56754;51.568;5.048;2023-03-14T05:39:11;4.60;;;1.10;;
69534;SDS011;56754;51.568;5.048;2023-03-14T05:41:36;6.40;;;1.37;;
69534;SDS011;56754;51.568;5.048;2023-03-14T05:44:02;3.50;;;1.17;;
69534;SDS011;56754;51.568;5.048;2023-03-14T05:46:27;5.00;;;1.23;;
69534;SDS011;56754;51.568;5.048;2023-03-14T05:48:53;4.13;;;0.90;;
69534;SDS011;56754;51.568;5.048;2023-03-14T05:51:18;4.47;;;1.20;;
69534;SDS011;56754;51.568;5.048;2023-03-14T05:53:43;6.50;;;1.27;;
69534;SDS011;56754;51.568;5.048;2023-03-14T05:56:09;6.57;;;1.70;;
69534;SDS011;56754;51.568;5.048;2023-03-14T05:58:34;5.13;;;1.10;;
69534;SDS011;56754;51.568;5.048;2023-03-14T06:01:03;4.00;;;1.10;;
69534;SDS011;56754;51.568;5.048;2023-03-14T06:03:29;6.25;;;1.20;;
69534;SDS011;56754;51.568;5.048;2023-03-14T06:05:55;3.67;;;0.90;;
69534;SDS011;56754;51.568;5.048;2023-03-14T06:08:20;5.77;;;1.10;;
69534;SDS011;56754;51.568;5.048;2023-03-14T06:10:45;5.18;;;1.10;;
69534;SDS011;56754;51.568;5.048;2023-03-14T06:13:11;6.50;;;1.70;;
69534;SDS011;56754;51.568;5.048;2023-03-14T06:15:36;4.73;;;1.50;;
69534;SDS011;56754;51.568;5.048;2023-03-14T06:18:01;4.87;;;1.57;;
69534;SDS011;56754;51.568;5.048;2023-03-14T06:20:27;5.53;;;1.40;;
69534;SDS011;56754;51.568;5.048;2023-03-14T06:22:52;5.78;;;1.50;;
69534;SDS011;56754;51.568;5.048;2023-03-14T06:25:17;4.20;;;1.40;;
69534;SDS011;56754;51.568;5.048;2023-03-14T06:27:43;5.13;;;1.67;;
69534;SDS011;56754;51.568;5.048;2023-03-14T06:30:08;4.50;;;1.50;;
69534;SDS011;56754;51.568;5.048;2023-03-14T06:32:34;6.28;;;1.95;;
69534;SDS011;56754;51.568;5.048;2023-03-14T06:34:59;6.13;;;1.90;;
69534;SDS011;56754;51.568;5.048;2023-03-14T06:37:24;4.63;;;2.10;;
69534;SDS011;56754;51.568;5.048;2023-03-14T06:39:50;5.33;;;1.50;;
69534;SDS011;56754;51.568;5.048;2023-03-14T06:42:15;6.70;;;2.10;;
69534;SDS011;56754;51.568;5.048;2023-03-14T06:44:40;5.80;;;1.87;;
69534;SDS011;56754;51.568;5.048;2023-03-14T06:47:05;6.57;;;2.43;;
69534;SDS011;56754;51.568;5.048;2023-03-14T06:49:31;6.00;;;2.00;;
69534;SDS011;56754;51.568;5.048;2023-03-14T06:51:56;6.78;;;2.35;;
69534;SDS011;56754;51.568;5.048;2023-03-14T06:54:21;6.43;;;2.30;;
69534;SDS011;56754;51.568;5.048;2023-03-14T06:56:47;6.60;;;2.43;;
69534;SDS011;56754;51.568;5.048;2023-03-14T06:59:12;6.33;;;2.43;;
69534;SDS011;56754;51.568;5.048;2023-03-14T07:01:37;6.30;;;1.87;;
69534;SDS011;56754;51.568;5.048;2023-03-14T07:04:02;5.20;;;1.40;;
69534;SDS011;56754;51.568;5.048;2023-03-14T07:06:28;4.13;;;1.10;;
69534;SDS011;56754;51.568;5.048;2023-03-14T07:08:53;3.55;;;0.90;;
69534;SDS011;56754;51.568;5.048;2023-03-14T07:11:18;2.67;;;0.63;;
69534;SDS011;56754;51.568;5.048;2023-03-14T07:13:44;2.70;;;0.67;;
69534;SDS011;56754;51.568;5.048;2023-03-14T07:16:09;3.03;;;0.70;;
69534;SDS011;56754;51.568;5.048;2023-03-14T07:18:34;3.43;;;0.73;;
69534;SDS011;56754;51.568;5.048;2023-03-14T07:21:00;3.37;;;0.60;;
69534;SDS011;56754;51.568;5.048;2023-03-14T07:23:25;4.10;;;0.50;;
69534;SDS011;56754;51.568;5.048;2023-03-14T07:25:50;3.13;;;0.75;;
69534;SDS011;56754;51.568;5.048;2023-03-14T07:28:16;4.37;;;0.60;;
69534;SDS011;56754;51.568;5.048;2023-03-14T07:30:41;3.53;;;0.70;;
69534;SDS011;56754;51.568;5.048;2023-03-14T07:33:06;3.43;;;0.70;;
69534;SDS011;56754;51.568;5.048;2023-03-14T07:35:32;2.40;;;0.60;;
69534;SDS011;56754;51.568;5.048;2023-03-14T07:37:57;2.47;;;0.70;;
69534;SDS011;56754;51.568;5.048;2023-03-14T07:40:22;4.03;;;0.85;;
69534;SDS011;56754;51.568;5.048;2023-03-14T07:42:48;3.53;;;0.73;;
69534;SDS011;56754;51.568;5.048;2023-03-14T07:45:13;2.97;;;0.70;;
69534;SDS011;56754;51.568;5.048;2023-03-14T07:47:38;3.27;;;0.80;;
69534;SDS011;56754;51.568;5.048;2023-03-14T07:50:04;3.03;;;0.60;;
69534;SDS011;56754;51.568;5.048;2023-03-14T07:52:30;2.60;;;0.60;;
69534;SDS011;56754;51.568;5.048;2023-03-14T07:54:55;2.23;;;0.40;;
69534;SDS011;56754;51.568;5.048;2023-03-14T07:57:21;3.00;;;0.40;;
69534;SDS011;56754;51.568;5.048;2023-03-14T07:59:46;2.28;;;0.50;;
69534;SDS011;56754;51.568;5.048;2023-03-14T08:02:12;1.63;;;0.50;;
69534;SDS011;56754;51.568;5.048;2023-03-14T08:04:38;2.80;;;0.50;;
69534;SDS011;56754;51.568;5.048;2023-03-14T08:07:04;1.95;;;0.40;;
69534;SDS011;56754;51.568;5.048;2023-03-14T08:09:30;2.03;;;0.30;;
69534;SDS011;56754;51.568;5.048;2023-03-14T08:11:55;2.10;;;0.40;;
69534;SDS011;56754;51.568;5.048;2023-03-14T08:14:21;6.10;;;0.40;;
69534;SDS011;56754;51.568;5.048;2023-03-14T08:16:46;4.97;;;0.50;;
69534;SDS011;56754;51.568;5.048;2023-03-14T08:19:11;3.70;;;0.50;;
69534;SDS011;56754;51.568;5.048;2023-03-14T08:21:37;4.87;;;0.53;;
69534;SDS011;56754;51.568;5.048;2023-03-14T08:24:02;4.10;;;0.60;;
69534;SDS011;56754;51.568;5.048;2023-03-14T08:26:27;6.60;;;0.93;;
69534;SDS011;56754;51.568;5.048;2023-03-14T08:28:53;3.42;;;0.50;;
69534;SDS011;56754;51.568;5.048;2023-03-14T08:31:18;4.17;;;0.60;;
69534;SDS011;56754;51.568;5.048;2023-03-14T08:33:43;5.30;;;0.80;;
69534;SDS011;56754;51.568;5.048;2023-03-14T08:36:09;4.50;;;0.50;;
69534;SDS011;56754;51.568;5.048;2023-03-14T08:38:35;2.60;;;0.50;;
69534;SDS011;56754;51.568;5.048;2023-03-14T08:41:01;4.03;;;0.47;;
69534;SDS011;56754;51.568;5.048;2023-03-14T08:43:28;2.78;;;0.50;;
69534;SDS011;56754;51.568;5.048;2023-03-14T08:45:53;4.80;;;0.70;;
69534;SDS011;56754;51.568;5.048;2023-03-14T08:48:22;5.50;;;1.13;;
69534;SDS011;56754;51.568;5.048;2023-03-14T08:50:48;5.47;;;0.80;;
69534;SDS011;56754;51.568;5.048;2023-03-14T08:53:13;5.57;;;0.70;;
69534;SDS011;56754;51.568;5.048;2023-03-14T08:55:39;3.43;;;0.53;;
69534;SDS011;56754;51.568;5.048;2023-03-14T08:58:06;6.60;;;0.77;;
69534;SDS011;56754;51.568;5.048;2023-03-14T09:00:31;3.50;;;0.73;;
69534;SDS011;56754;51.568;5.048;2023-03-14T09:02:56;7.00;;;1.17;;
69534;SDS011;56754;51.568;5.048;2023-03-14T09:05:21;4.10;;;0.50;;
69534;SDS011;56754;51.568;5.048;2023-03-14T09:07:47;2.28;;;0.40;;
69534;SDS011;56754;51.568;5.048;2023-03-14T09:10:13;3.43;;;0.67;;
69534;SDS011;56754;51.568;5.048;2023-03-14T09:12:38;5.63;;;0.50;;
69534;SDS011;56754;51.568;5.048;2023-03-14T09:15:03;2.20;;;0.40;;
69534;SDS011;56754;51.568;5.048;2023-03-14T09:17:29;3.30;;;0.50;;
69534;SDS011;56754;51.568;5.048;2023-03-14T09:19:56;2.55;;;0.45;;
69534;SDS011;56754;51.568;5.048;2023-03-14T09:22:21;3.10;;;0.70;;
69534;SDS011;56754;51.568;5.048;2023-03-14T09:24:48;2.50;;;0.50;;
69534;SDS011;56754;51.568;5.048;2023-03-14T09:27:14;5.70;;;0.83;;
69534;SDS011;56754;51.568;5.048;2023-03-14T09:29:39;2.23;;;0.60;;
69534;SDS011;56754;51.568;5.048;2023-03-14T09:32:04;2.20;;;0.33;;
69534;SDS011;56754;51.568;5.048;2023-03-14T09:34:30;2.83;;;0.40;;
69534;SDS011;56754;51.568;5.048;2023-03-14T09:36:55;1.77;;;0.30;;
69534;SDS011;56754;51.568;5.048;2023-03-14T09:39:20;2.00;;;0.30;;
69534;SDS011;56754;51.568;5.048;2023-03-14T09:41:46;1.83;;;0.30;;
69534;SDS011;56754;51.568;5.048;2023-03-14T09:44:15;3.35;;;0.50;;
69534;SDS011;56754;51.568;5.048;2023-03-14T09:46:54;2.20;;;0.30;;
69534;SDS011;56754;51.568;5.048;2023-03-14T09:49:30;5.47;;;0.50;;
69534;SDS011;56754;51.568;5.048;2023-03-14T09:51:59;4.28;;;0.35;;
69534;SDS011;56754;51.568;5.048;2023-03-14T09:54:37;2.07;;;0.40;;
69534;SDS011;56754;51.568;5.048;2023-03-14T09:57:09;3.92;;;0.55;;
69534;SDS011;56754;51.568;5.048;2023-03-14T09:59:39;3.85;;;0.45;;
69534;SDS011;56754;51.568;5.048;2023-03-14T10:04:45;3.05;;;0.65;;
69534;SDS011;56754;51.568;5.048;2023-03-14T10:07:15;3.80;;;0.30;;
69534;SDS011;56754;51.568;5.048;2023-03-14T10:09:44;5.45;;;0.68;;
69534;SDS011;56754;51.568;5.048;2023-03-14T10:12:12;4.20;;;0.50;;
69534;SDS011;56754;51.568;5.048;2023-03-14T10:14:38;6.53;;;0.40;;
69534;SDS011;56754;51.568;5.048;2023-03-14T10:17:12;4.50;;;0.30;;
69534;SDS011;56754;51.568;5.048;2023-03-14T10:19:58;4.82;;;0.50;;
69534;SDS011;56754;51.568;5.048;2023-03-14T10:22:26;4.47;;;0.68;;
69534;SDS011;56754;51.568;5.048;2023-03-14T10:24:57;6.00;;;0.60;;
69534;SDS011;56754;51.568;5.048;2023-03-14T10:27:35;5.47;;;0.60;;
69534;SDS011;56754;51.568;5.048;2023-03-14T10:30:02;5.90;;;0.60;;
69534;SDS011;56754;51.568;5.048;2023-03-14T10:32:34;6.70;;;0.80;;
69534;SDS011;56754;51.568;5.048;2023-03-14T10:35:05;5.72;;;0.52;;
69534;SDS011;56754;51.568;5.048;2023-03-14T10:37:53;4.55;;;0.88;;
69534;SDS011;56754;51.568;5.048;2023-03-14T10:40:40;7.67;;;1.00;;
69534;SDS011;56754;51.568;5.048;2023-03-14T10:43:13;6.45;;;0.70;;
69534;SDS011;56754;51.568;5.048;2023-03-14T10:45:42;6.65;;;0.73;;
69534;SDS011;56754;51.568;5.048;2023-03-14T10:48:24;8.65;;;0.88;;
69534;SDS011;56754;51.568;5.048;2023-03-14T10:56:26;7.80;;;0.65;;
69534;SDS011;56754;51.568;5.048;2023-03-14T10:58:57;12.10;;;1.15;;
69534;SDS011;56754;51.568;5.048;2023-03-14T11:01:41;9.00;;;0.95;;
69534;SDS011;56754;51.568;5.048;2023-03-14T11:04:26;8.75;;;1.02;;
69534;SDS011;56754;51.568;5.048;2023-03-14T11:24:12;8.50;;;1.10;;
69534;SDS011;56754;51.568;5.048;2023-03-14T11:26:53;8.30;;;1.00;;
69534;SDS011;56754;51.568;5.048;2023-03-14T11:29:39;12.38;;;1.30;;
69534;SDS011;56754;51.568;5.048;2023-03-14T11:32:12;7.97;;;0.85;;
69534;SDS011;56754;51.568;5.048;2023-03-14T11:37:14;9.23;;;1.10;;
69534;SDS011;56754;51.568;5.048;2023-03-14T11:39:54;11.00;;;1.15;;
69534;SDS011;56754;51.568;5.048;2023-03-14T11:42:23;10.18;;;1.17;;
69534;SDS011;56754;51.568;5.048;2023-03-14T11:44:52;8.07;;;0.90;;
69534;SDS011;56754;51.568;5.048;2023-03-14T11:47:24;10.43;;;1.10;;
69534;SDS011;56754;51.568;5.048;2023-03-14T11:49:57;9.77;;;1.10;;
69534;SDS011;56754;51.568;5.048;2023-03-14T11:52:41;8.70;;;1.00;;
69534;SDS011;56754;51.568;5.048;2023-03-14T11:55:24;10.65;;;1.05;;
69534;SDS011;56754;51.568;5.048;2023-03-14T11:57:55;7.60;;;0.98;;
69534;SDS011;56754;51.568;5.048;2023-03-14T12:00:25;11.07;;;1.00;;
69534;SDS011;56754;51.568;5.048;2023-03-14T12:05:37;12.73;;;1.60;;
69534;SDS011;56754;51.568;5.048;2023-03-14T12:08:22;8.18;;;1.05;;
69534;SDS011;56754;51.568;5.048;2023-03-14T12:11:02;13.93;;;1.17;;
69534;SDS011;56754;51.568;5.048;2023-03-14T12:13:36;13.45;;;1.42;;
69534;SDS011;56754;51.568;5.048;2023-03-14T12:16:04;12.00;;;1.42;;
69534;SDS011;56754;51.568;5.048;2023-03-14T12:21:17;8.57;;;1.20;;
69534;SDS011;56754;51.568;5.048;2023-03-14T12:23:50;10.33;;;1.17;;
69534;SDS011;56754;51.568;5.048;2023-03-14T12:26:22;8.60;;;1.17;;
69534;SDS011;56754;51.568;5.048;2023-03-14T12:28:50;9.85;;;1.30;;
69534;SDS011;56754;51.568;5.048;2023-03-14T12:42:10;8.17;;;0.83;;
69534;SDS011;56754;51.568;5.048;2023-03-14T12:47:40;8.75;;;0.65;;
69534;SDS011;56754;51.568;5.048;2023-03-14T12:50:16;7.90;;;0.93;;
69534;SDS011;56754;51.568;5.048;2023-03-14T12:55:36;6.97;;;0.75;;
69534;SDS011;56754;51.568;5.048;2023-03-14T13:00:51;7.55;;;0.77;;
69534;SDS011;56754;51.568;5.048;2023-03-14T13:03:21;5.57;;;0.65;;
69534;SDS011;56754;51.568;5.048;2023-03-14T13:05:59;7.13;;;0.70;;
69534;SDS011;56754;51.568;5.048;2023-03-14T13:08:33;5.55;;;0.70;;
69534;SDS011;56754;51.568;5.048;2023-03-14T13:11:02;8.18;;;0.80;;
69534;SDS011;56754;51.568;5.048;2023-03-14T13:13:31;6.07;;;0.80;;
69534;SDS011;56754;51.568;5.048;2023-03-14T13:16:00;6.68;;;1.05;;
69534;SDS011;56754;51.568;5.048;2023-03-14T13:21:03;6.20;;;0.68;;
69534;SDS011;56754;51.568;5.048;2023-03-14T13:23:36;11.50;;;1.00;;
69534;SDS011;56754;51.568;5.048;2023-03-14T13:26:02;7.40;;;0.70;;
69534;SDS011;56754;51.568;5.048;2023-03-14T13:28:28;8.17;;;0.87;;
69534;SDS011;56754;51.568;5.048;2023-03-14T13:30:56;8.13;;;1.10;;
69534;SDS011;56754;51.568;5.048;2023-03-14T13:33:23;6.97;;;0.90;;
69534;SDS011;56754;51.568;5.048;2023-03-14T13:35:59;6.15;;;0.90;;
69534;SDS011;56754;51.568;5.048;2023-03-14T13:38:27;6.30;;;0.83;;
69534;SDS011;56754;51.568;5.048;2023-03-14T13:40:55;7.28;;;0.85;;
69534;SDS011;56754;51.568;5.048;2023-03-14T13:45:56;8.40;;;1.10;;
69534;SDS011;56754;51.568;5.048;2023-03-14T13:48:28;8.35;;;1.05;;
69534;SDS011;56754;51.568;5.048;2023-03-14T13:50:58;8.33;;;0.77;;
69534;SDS011;56754;51.568;5.048;2023-03-14T13:53:26;6.15;;;0.70;;
69534;SDS011;56754;51.568;5.048;2023-03-14T13:55:52;5.57;;;0.50;;
69534;SDS011;56754;51.568;5.048;2023-03-14T13:58:28;6.13;;;0.60;;
69534;SDS011;56754;51.568;5.048;2023-03-14T14:00:57;6.97;;;0.75;;
69534;SDS011;56754;51.568;5.048;2023-03-14T14:03:23;5.10;;;0.75;;
69534;SDS011;56754;51.568;5.048;2023-03-14T14:05:48;7.03;;;1.17;;
69534;SDS011;56754;51.568;5.048;2023-03-14T14:08:14;5.47;;;0.87;;
69534;SDS011;56754;51.568;5.048;2023-03-14T14:10:41;5.25;;;0.70;;
69534;SDS011;56754;51.568;5.048;2023-03-14T14:13:08;9.20;;;0.73;;
69534;SDS011;56754;51.568;5.048;2023-03-14T14:15:43;5.65;;;0.95;;
69534;SDS011;56754;51.568;5.048;2023-03-14T14:18:11;6.07;;;0.83;;
69534;SDS011;56754;51.568;5.048;2023-03-14T14:20:40;7.18;;;0.70;;
69534;SDS011;56754;51.568;5.048;2023-03-14T14:23:15;5.88;;;0.65;;
69534;SDS011;56754;51.568;5.048;2023-03-14T14:25:48;6.40;;;0.50;;
69534;SDS011;56754;51.568;5.048;2023-03-14T14:33:43;5.20;;;0.80;;
69534;SDS011;56754;51.568;5.048;2023-03-14T14:38:52;4.85;;;0.57;;
69534;SDS011;56754;51.568;5.048;2023-03-14T14:41:19;8.32;;;0.65;;
69534;SDS011;56754;51.568;5.048;2023-03-14T14:43:45;5.20;;;0.80;;
69534;SDS011;56754;51.568;5.048;2023-03-14T14:46:13;7.55;;;0.82;;
69534;SDS011;56754;51.568;5.048;2023-03-14T14:48:42;6.85;;;0.70;;
69534;SDS011;56754;51.568;5.048;2023-03-14T14:51:07;5.27;;;0.60;;
69534;SDS011;56754;51.568;5.048;2023-03-14T14:56:13;6.95;;;0.88;;
69534;SDS011;56754;51.568;5.048;2023-03-14T14:58:43;7.38;;;0.80;;
69534;SDS011;56754;51.568;5.048;2023-03-14T15:01:11;6.80;;;0.80;;
69534;SDS011;56754;51.568;5.048;2023-03-14T15:03:43;6.50;;;0.70;;
69534;SDS011;56754;51.568;5.048;2023-03-14T15:06:12;8.90;;;1.20;;
69534;SDS011;56754;51.568;5.048;2023-03-14T15:08:39;4.03;;;0.50;;
69534;SDS011;56754;51.568;5.048;2023-03-14T15:11:04;10.47;;;0.90;;
69534;SDS011;56754;51.568;5.048;2023-03-14T15:13:30;6.10;;;0.93;;
69534;SDS011;56754;51.568;5.048;2023-03-14T15:15:55;8.30;;;1.10;;
69534;SDS011;56754;51.568;5.048;2023-03-14T15:18:22;5.78;;;0.60;;
69534;SDS011;56754;51.568;5.048;2023-03-14T15:20:50;5.63;;;0.75;;
69534;SDS011;56754;51.568;5.048;2023-03-14T15:23:17;9.23;;;0.90;;
69534;SDS011;56754;51.568;5.048;2023-03-14T15:25:44;6.65;;;0.85;;
69534;SDS011;56754;51.568;5.048;2023-03-14T15:28:20;5.88;;;0.80;;
69534;SDS011;56754;51.568;5.048;2023-03-14T15:30:47;5.63;;;0.80;;
69534;SDS011;56754;51.568;5.048;2023-03-14T15:33:14;5.97;;;0.80;;
69534;SDS011;56754;51.568;5.048;2023-03-14T15:35:40;9.63;;;0.82;;
69534;SDS011;56754;51.568;5.048;2023-03-14T15:38:08;5.90;;;0.57;;
69534;SDS011;56754;51.568;5.048;2023-03-14T15:40:35;5.10;;;0.50;;
69534;SDS011;56754;51.568;5.048;2023-03-14T15:43:00;6.73;;;0.53;;
69534;SDS011;56754;51.568;5.048;2023-03-14T15:45:29;5.03;;;0.80;;
69534;SDS011;56754;51.568;5.048;2023-03-14T15:47:55;5.70;;;0.67;;
69534;SDS011;56754;51.568;5.048;2023-03-14T15:50:20;5.80;;;0.70;;
69534;SDS011;56754;51.568;5.048;2023-03-14T15:52:46;7.90;;;0.70;;
69534;SDS011;56754;51.568;5.048;2023-03-14T15:55:11;6.20;;;0.63;;
69534;SDS011;56754;51.568;5.048;2023-03-14T15:57:37;6.07;;;0.70;;
69534;SDS011;56754;51.568;5.048;2023-03-14T16:00:02;6.13;;;0.67;;
69534;SDS011;56754;51.568;5.048;2023-03-14T16:02:28;6.35;;;0.68;;
69534;SDS011;56754;51.568;5.048;2023-03-14T16:04:53;5.93;;;0.73;;
69534;SDS011;56754;51.568;5.048;2023-03-14T16:07:19;7.77;;;1.10;;
69534;SDS011;56754;51.568;5.048;2023-03-14T16:09:44;5.60;;;0.70;;